Rock Bridge, Tennessee
Current Conditions -  °F | °C
As of 12:53 AM on Monday 24 Nov 2014 (Local Time) from KBWG Reporting Station
Broken Clouds Broken Clouds  
Wind Chill: 62°   Ceiling: 6500
Heat Index: 62°   Visibility: 10mi
Dew Point: 56°   Wind: 14mph
Humidity: 80%   Direction: 180°S
Pressure: 29.43"   Gusts: NA
Location:  36.5084°N, 86.3071°W
Report Text: KBWG 240653Z AUTO 18012KT 10SM FEW024 BKN065 17/13 A2943 RMK AO2 SLP961 T01670133
Loading
Personal Weather Stations






























Interactive Weather Map New forecast layout! Learn more

10-Day Weather Forecast

Advertisements
Track Severe Weather on mobile